createdAt,value
2017-12-23T00:02:25.935Z,12.47
2017-12-23T00:04:54.267Z,13.20
2017-12-23T00:07:22.596Z,11.63
2017-12-23T00:09:51.691Z,11.70
2017-12-23T00:12:20.018Z,16.93
2017-12-23T00:14:48.349Z,17.60
2017-12-23T00:17:18.506Z,13.27
2017-12-23T00:19:46.831Z,11.00
2017-12-23T00:22:15.168Z,13.20
2017-12-23T00:24:43.504Z,18.50
2017-12-23T00:27:11.832Z,14.50
2017-12-23T00:29:40.162Z,13.83
2017-12-23T00:32:08.517Z,14.80
2017-12-23T00:34:37.583Z,16.63
2017-12-23T00:37:05.884Z,14.30
2017-12-23T00:39:35.007Z,25.40
2017-12-23T00:42:03.330Z,17.53
2017-12-23T00:44:31.665Z,19.60
2017-12-23T00:46:59.986Z,11.63
2017-12-23T00:49:28.326Z,14.50
2017-12-23T00:51:56.653Z,18.73
2017-12-23T00:54:24.976Z,14.97
2017-12-23T00:56:53.320Z,20.17
2017-12-23T00:59:21.671Z,16.00
2017-12-23T01:01:50.028Z,13.43
2017-12-23T01:04:18.354Z,11.47
2017-12-23T01:06:46.953Z,9.50
2017-12-23T01:09:15.281Z,8.60
2017-12-23T01:11:44.371Z,12.47
2017-12-23T01:14:12.707Z,11.20
2017-12-23T01:16:41.032Z,12.30
2017-12-23T01:19:09.383Z,10.53
2017-12-23T01:21:37.710Z,9.05
2017-12-23T01:24:06.053Z,13.07
2017-12-23T01:26:34.396Z,10.00
2017-12-23T01:29:03.497Z,9.50
2017-12-23T01:31:31.866Z,13.20
2017-12-23T01:34:00.950Z,14.37
2017-12-23T01:36:29.279Z,11.00
2017-12-23T01:38:57.618Z,12.13
2017-12-23T01:41:25.964Z,14.77
2017-12-23T01:43:54.316Z,15.87
2017-12-23T01:46:22.668Z,11.80
2017-12-23T01:48:51.817Z,11.30
2017-12-23T01:51:20.139Z,11.07
2017-12-23T01:53:49.251Z,22.70
2017-12-23T01:56:17.644Z,12.70
2017-12-23T01:58:45.961Z,11.43
2017-12-23T02:01:15.042Z,9.73
2017-12-23T02:03:43.366Z,13.80
2017-12-23T02:06:11.707Z,16.30
2017-12-23T02:08:40.088Z,16.83
2017-12-23T02:11:08.437Z,13.63
2017-12-23T02:13:36.764Z,11.77
2017-12-23T02:16:05.100Z,13.20
2017-12-23T02:18:33.449Z,9.03
2017-12-23T02:21:01.772Z,13.17
2017-12-23T02:23:30.119Z,13.87
2017-12-23T02:25:58.456Z,12.30
2017-12-23T02:28:26.802Z,12.10
2017-12-23T02:30:55.134Z,16.00
2017-12-23T02:33:23.501Z,10.73
2017-12-23T02:35:51.826Z,7.80
2017-12-23T02:38:20.154Z,10.40
2017-12-23T02:40:49.234Z,9.67
2017-12-23T02:43:17.567Z,12.43
2017-12-23T02:45:45.886Z,13.70
2017-12-23T02:48:14.198Z,17.43
2017-12-23T02:50:42.533Z,22.20
2017-12-23T02:53:10.877Z,20.00
2017-12-23T02:55:39.210Z,10.43
2017-12-23T02:58:07.549Z,15.20
2017-12-23T03:00:35.894Z,11.30
2017-12-23T03:03:04.233Z,11.83
2017-12-23T03:05:32.560Z,11.67
2017-12-23T03:08:00.905Z,12.93
2017-12-23T03:10:29.234Z,17.10
2017-12-23T03:12:57.565Z,12.93
2017-12-23T03:15:25.915Z,13.20
2017-12-23T03:17:54.297Z,12.80
2017-12-23T03:20:22.639Z,11.07
2017-12-23T03:22:50.975Z,12.70
2017-12-23T03:25:19.309Z,23.90
2017-12-23T03:27:47.653Z,11.57
2017-12-23T03:30:15.991Z,12.07
2017-12-23T03:32:44.345Z,12.20
2017-12-23T03:35:12.685Z,16.53
2017-12-23T03:37:41.022Z,12.23
2017-12-23T03:40:09.410Z,12.50
2017-12-23T03:42:37.749Z,12.75
2017-12-23T03:45:06.077Z,11.87
2017-12-23T03:47:34.408Z,18.03
2017-12-23T03:50:02.743Z,12.60
2017-12-23T03:52:31.083Z,13.53
2017-12-23T03:54:59.424Z,12.40
2017-12-23T03:57:27.774Z,13.82
2017-12-23T03:59:56.117Z,12.07
2017-12-23T04:02:24.461Z,11.33
2017-12-23T04:04:52.792Z,16.77
2017-12-23T04:07:21.140Z,11.70
2017-12-23T04:09:49.527Z,13.77
2017-12-23T04:12:18.630Z,11.55
2017-12-23T04:14:46.956Z,13.27
2017-12-23T04:17:15.300Z,17.97
2017-12-23T04:19:43.636Z,9.17
2017-12-23T04:22:11.989Z,15.97
2017-12-23T04:24:40.306Z,13.67
2017-12-23T04:27:08.644Z,12.50
2017-12-23T04:29:37.008Z,11.67
2017-12-23T04:32:05.334Z,10.13
2017-12-23T04:34:33.668Z,11.50
2017-12-23T04:37:01.987Z,14.23
2017-12-23T04:39:31.096Z,15.90
2017-12-23T04:41:59.426Z,13.27
2017-12-23T04:44:27.761Z,15.13
2017-12-23T04:46:56.137Z,11.60
2017-12-23T04:49:24.477Z,13.23
2017-12-23T04:51:52.780Z,13.90
2017-12-23T04:54:21.106Z,13.90
2017-12-23T04:59:23.894Z,17.37
2017-12-23T05:01:52.192Z,16.90
2017-12-23T05:04:20.508Z,14.93
2017-12-23T05:06:48.821Z,20.63
2017-12-23T05:09:17.134Z,24.83
2017-12-23T05:11:45.454Z,15.53
2017-12-23T05:14:14.539Z,14.30
2017-12-23T05:16:44.652Z,15.33
2017-12-23T05:19:13.735Z,12.97
2017-12-23T05:21:42.075Z,15.33
2017-12-23T05:24:10.405Z,19.50
2017-12-23T05:26:39.131Z,18.27
2017-12-23T05:29:07.475Z,14.50
2017-12-23T05:31:35.803Z,18.20
2017-12-23T05:34:04.149Z,26.17
2017-12-23T05:36:32.497Z,17.90
2017-12-23T05:39:00.844Z,15.50
2017-12-23T05:41:29.181Z,13.83
2017-12-23T05:43:57.502Z,15.10
2017-12-23T05:46:25.833Z,13.77
2017-12-23T05:48:54.169Z,12.80
2017-12-23T05:51:23.274Z,13.27
2017-12-23T05:53:52.835Z,10.70
2017-12-23T05:56:21.155Z,13.97
2017-12-23T05:58:50.226Z,18.37
2017-12-23T06:01:18.560Z,12.77
2017-12-23T06:03:46.882Z,13.23
2017-12-23T06:06:15.752Z,13.18
2017-12-23T06:08:44.066Z,12.23
2017-12-23T06:11:13.168Z,20.20
2017-12-23T06:13:41.495Z,22.50
2017-12-23T06:16:09.814Z,14.10
2017-12-23T06:18:38.157Z,12.17
2017-12-23T06:21:06.501Z,19.13
2017-12-23T06:23:34.831Z,16.23
2017-12-23T06:26:03.179Z,20.07
2017-12-23T06:28:31.535Z,10.77
2017-12-23T06:30:59.862Z,11.07
2017-12-23T06:33:28.221Z,11.27
2017-12-23T06:35:56.567Z,18.07
2017-12-23T06:38:24.933Z,11.68
2017-12-23T06:40:53.255Z,12.10
2017-12-23T06:43:21.609Z,12.77
2017-12-23T06:45:49.918Z,11.30
2017-12-23T06:48:18.223Z,10.83
2017-12-23T06:50:46.538Z,8.03
2017-12-23T06:53:15.973Z,9.37
2017-12-23T06:55:44.286Z,7.80
2017-12-23T06:58:12.619Z,9.17
2017-12-23T07:00:40.956Z,9.07
2017-12-23T07:03:09.287Z,10.17
2017-12-23T07:05:37.622Z,12.03
2017-12-23T07:08:05.960Z,13.50
2017-12-23T07:10:34.282Z,16.30
2017-12-23T07:13:02.611Z,13.87
2017-12-23T07:15:30.936Z,12.23
2017-12-23T07:17:59.256Z,8.10
2017-12-23T07:20:27.592Z,7.23
2017-12-23T07:22:55.916Z,13.93
2017-12-23T07:25:24.241Z,8.80
2017-12-23T07:27:52.581Z,7.80
2017-12-23T07:30:20.912Z,10.70
2017-12-23T07:32:49.231Z,7.73
2017-12-23T07:35:17.552Z,14.60
2017-12-23T07:37:45.944Z,18.80
2017-12-23T07:40:14.258Z,14.27
2017-12-23T07:42:42.584Z,18.30
2017-12-23T07:45:10.938Z,10.50
2017-12-23T07:47:39.283Z,14.40
2017-12-23T07:50:07.626Z,10.40
2017-12-23T07:52:35.951Z,12.30
2017-12-23T07:55:04.283Z,7.37
2017-12-23T07:57:32.611Z,8.30
2017-12-23T08:00:00.930Z,7.00
2017-12-23T08:02:29.262Z,3.33
2017-12-23T08:04:57.585Z,5.67
2017-12-23T08:07:25.941Z,4.30
2017-12-23T08:09:55.032Z,2.80
2017-12-23T08:12:23.377Z,2.97
2017-12-23T08:14:51.709Z,1.60
2017-12-23T08:17:20.036Z,2.30
2017-12-23T08:19:48.377Z,3.20
2017-12-23T08:22:16.704Z,3.70
2017-12-23T08:24:45.037Z,1.60
2017-12-23T08:27:13.373Z,3.93
2017-12-23T08:29:41.704Z,2.87
2017-12-23T08:32:10.049Z,2.50
2017-12-23T08:34:38.419Z,2.33
2017-12-23T08:37:06.735Z,5.60
2017-12-23T08:39:35.068Z,2.00
2017-12-23T08:42:03.395Z,3.70
2017-12-23T08:44:31.732Z,3.20
2017-12-23T08:47:00.082Z,3.67
2017-12-23T08:49:28.391Z,3.00
2017-12-23T08:51:56.735Z,2.60
2017-12-23T08:54:25.047Z,4.07
2017-12-23T08:56:53.385Z,2.73
2017-12-23T08:59:21.717Z,1.70
2017-12-23T09:01:50.040Z,2.70
2017-12-23T09:04:18.652Z,2.53
2017-12-23T09:06:47.748Z,3.50
2017-12-23T09:09:16.085Z,1.83
2017-12-23T09:11:44.407Z,2.57
2017-12-23T09:14:12.741Z,3.20
2017-12-23T09:16:41.749Z,2.80
2017-12-23T09:19:10.077Z,2.73
2017-12-23T09:21:38.406Z,3.90
2017-12-23T09:24:06.731Z,2.77
2017-12-23T09:26:35.097Z,1.73
2017-12-23T09:29:03.437Z,2.40
2017-12-23T09:31:31.761Z,3.10
2017-12-23T09:34:00.083Z,2.53
2017-12-23T09:36:28.827Z,2.33
2017-12-23T09:38:57.141Z,1.73
2017-12-23T09:41:25.483Z,3.00
2017-12-23T09:43:54.706Z,2.40
2017-12-23T09:46:23.054Z,2.47
2017-12-23T09:48:51.371Z,1.90
2017-12-23T09:51:19.718Z,4.30
2017-12-23T09:53:48.054Z,2.10
2017-12-23T09:56:16.389Z,2.30
2017-12-23T09:58:44.706Z,3.40
2017-12-23T10:01:14.888Z,2.83
2017-12-23T10:03:43.212Z,4.22
2017-12-23T10:06:11.554Z,2.93
2017-12-23T10:08:39.900Z,5.20
2017-12-23T10:11:08.237Z,4.87
2017-12-23T10:13:36.592Z,2.20
2017-12-23T10:16:04.932Z,3.10
2017-12-23T10:18:33.261Z,3.23
2017-12-23T10:21:01.603Z,4.50
2017-12-23T10:23:29.923Z,3.63
2017-12-23T10:25:58.250Z,3.47
2017-12-23T10:28:26.558Z,3.77
2017-12-23T10:30:54.894Z,3.67
2017-12-23T10:33:23.215Z,3.20
2017-12-23T10:35:51.572Z,2.67
2017-12-23T10:38:19.908Z,3.00
2017-12-23T10:40:48.241Z,3.10
2017-12-23T10:43:16.568Z,2.13
2017-12-23T10:45:44.933Z,2.00
2017-12-23T10:48:14.033Z,4.50
2017-12-23T10:50:42.373Z,3.27
2017-12-23T10:53:10.699Z,2.83
2017-12-23T10:55:39.007Z,3.13
2017-12-23T10:58:07.318Z,7.37
2017-12-23T11:00:35.642Z,4.33
2017-12-23T11:03:03.982Z,3.30
2017-12-23T11:05:32.300Z,3.23
2017-12-23T11:08:00.637Z,3.40
2017-12-23T11:10:28.971Z,3.30
2017-12-23T11:12:57.312Z,3.87
2017-12-23T11:15:25.648Z,3.13
2017-12-23T11:17:53.981Z,3.27
2017-12-23T11:20:22.296Z,3.70
2017-12-23T11:22:50.610Z,4.20
2017-12-23T11:25:18.927Z,4.43
2017-12-23T11:27:47.260Z,4.80
2017-12-23T11:30:16.347Z,6.67
2017-12-23T11:32:45.481Z,6.45
2017-12-23T11:35:13.808Z,5.03
2017-12-23T11:37:42.139Z,6.03
2017-12-23T11:40:10.462Z,5.73
2017-12-23T11:42:38.774Z,7.28
2017-12-23T11:45:07.111Z,6.47
2017-12-23T11:47:35.454Z,5.83
2017-12-23T11:50:03.774Z,6.57
2017-12-23T11:52:32.102Z,6.90
2017-12-23T11:55:00.476Z,5.73
2017-12-23T11:57:29.065Z,7.78
2017-12-23T11:59:57.382Z,5.30
2017-12-23T12:02:25.718Z,7.35
2017-12-23T12:04:54.053Z,5.70
2017-12-23T12:07:22.376Z,5.10
2017-12-23T12:09:50.725Z,5.73
2017-12-23T12:12:20.744Z,5.77
2017-12-23T12:14:49.051Z,6.97
2017-12-23T12:17:17.426Z,31.87
2017-12-23T12:19:46.417Z,10.20
2017-12-23T12:22:14.728Z,6.47
2017-12-23T12:24:43.073Z,6.30
2017-12-23T12:27:11.414Z,6.13
2017-12-23T12:29:40.494Z,5.50
2017-12-23T12:32:08.806Z,8.40
2017-12-23T12:34:37.140Z,5.73
2017-12-23T12:37:07.030Z,5.17
2017-12-23T12:39:35.351Z,5.37
2017-12-23T12:42:03.679Z,6.15
2017-12-23T12:44:32.008Z,4.10
2017-12-23T12:47:01.112Z,3.80
2017-12-23T12:49:29.441Z,4.37
2017-12-23T12:51:58.553Z,3.10
2017-12-23T12:54:26.890Z,4.13
2017-12-23T12:56:55.237Z,3.77
2017-12-23T12:59:23.563Z,4.83
2017-12-23T13:01:51.907Z,4.93
2017-12-23T13:04:20.236Z,5.57
2017-12-23T13:06:48.575Z,5.33
2017-12-23T13:09:16.890Z,4.13
2017-12-23T13:11:45.249Z,5.03
2017-12-23T13:14:13.606Z,6.60
2017-12-23T13:16:42.644Z,4.23
2017-12-23T13:19:10.997Z,3.77
2017-12-23T13:21:39.328Z,6.83
2017-12-23T13:24:07.649Z,3.60
2017-12-23T13:26:35.976Z,4.23
2017-12-23T13:29:04.303Z,4.67
2017-12-23T13:31:32.646Z,3.90
2017-12-23T13:34:00.976Z,3.70
2017-12-23T13:36:29.322Z,4.13
2017-12-23T13:38:58.241Z,3.80
2017-12-23T13:41:26.585Z,3.37
2017-12-23T13:43:54.910Z,4.87
2017-12-23T13:46:23.254Z,4.97
2017-12-23T13:48:51.586Z,4.67
2017-12-23T13:51:20.673Z,5.27
2017-12-23T13:53:48.994Z,5.43
2017-12-23T13:56:17.326Z,3.80
2017-12-23T13:58:45.659Z,5.23
2017-12-23T14:01:13.989Z,3.73
2017-12-23T14:03:42.325Z,4.03
2017-12-23T14:06:10.657Z,4.53
2017-12-23T14:08:38.982Z,2.97
2017-12-23T14:11:07.313Z,3.80
2017-12-23T14:13:36.403Z,3.73
2017-12-23T14:16:04.728Z,4.40
2017-12-23T14:18:33.459Z,3.83
2017-12-23T14:21:01.801Z,3.17
2017-12-23T14:23:30.125Z,3.83
2017-12-23T14:25:59.234Z,3.60
2017-12-23T14:28:27.571Z,4.50
2017-12-23T14:30:55.904Z,3.87
2017-12-23T14:33:24.224Z,6.80
2017-12-23T14:35:52.560Z,4.80
2017-12-23T14:38:20.887Z,4.70
2017-12-23T14:40:49.208Z,5.13
2017-12-23T14:43:17.541Z,6.00
2017-12-23T14:45:45.861Z,4.73
2017-12-23T14:48:15.036Z,4.00
2017-12-23T14:50:43.361Z,5.20
2017-12-23T14:53:11.710Z,3.33
2017-12-23T14:55:40.024Z,3.23
2017-12-23T14:58:08.350Z,4.70
2017-12-23T15:00:36.671Z,8.03
2017-12-23T15:03:05.003Z,4.37
2017-12-23T15:05:33.342Z,3.67
2017-12-23T15:08:01.690Z,5.35
2017-12-23T15:10:29.988Z,4.90
2017-12-23T15:12:58.322Z,3.27
2017-12-23T15:15:26.643Z,4.23
2017-12-23T15:17:54.976Z,3.60
2017-12-23T15:20:23.309Z,2.53
2017-12-23T15:22:51.646Z,2.70
2017-12-23T15:25:19.962Z,4.93
2017-12-23T15:27:48.292Z,3.47
2017-12-23T15:30:16.626Z,4.20
2017-12-23T15:32:44.960Z,3.50
2017-12-23T15:35:14.047Z,3.60
2017-12-23T15:37:42.378Z,2.73
2017-12-23T15:40:10.705Z,2.67
2017-12-23T15:42:39.040Z,2.47
2017-12-23T15:45:07.358Z,2.93
2017-12-23T15:47:35.679Z,3.10
2017-12-23T15:50:03.995Z,3.17
2017-12-23T15:52:32.389Z,3.83
2017-12-23T15:55:00.737Z,3.40
2017-12-23T15:57:29.846Z,3.43
2017-12-23T15:59:58.164Z,4.20
2017-12-23T16:02:26.489Z,3.07
2017-12-23T16:04:55.575Z,3.70
2017-12-23T16:07:23.884Z,4.00
2017-12-23T16:09:52.209Z,2.97
2017-12-23T16:12:20.549Z,4.80
2017-12-23T16:14:48.871Z,4.30
2017-12-23T16:17:17.638Z,3.17
2017-12-23T16:19:45.969Z,4.47
2017-12-23T16:22:14.309Z,3.20
2017-12-23T16:24:42.653Z,3.70
2017-12-23T16:27:10.987Z,3.60
2017-12-23T16:29:39.323Z,5.00
2017-12-23T16:32:07.661Z,3.65
2017-12-23T16:34:35.997Z,3.63
2017-12-23T16:37:04.324Z,2.83
2017-12-23T16:39:32.689Z,3.87
2017-12-23T16:42:01.015Z,4.23
2017-12-23T16:44:29.329Z,3.20
2017-12-23T16:46:58.433Z,3.20
2017-12-23T16:49:27.761Z,2.90
2017-12-23T16:51:56.097Z,4.20
2017-12-23T16:54:24.441Z,3.00
2017-12-23T16:56:52.768Z,2.87
2017-12-23T16:59:21.073Z,3.10
2017-12-23T17:01:49.373Z,4.23
2017-12-23T17:04:17.674Z,3.20
2017-12-23T17:06:46.877Z,3.00
2017-12-23T17:09:15.956Z,3.90
2017-12-23T17:11:44.267Z,5.93
2017-12-23T17:14:12.609Z,5.10
2017-12-23T17:16:41.408Z,4.73
2017-12-23T17:19:09.719Z,2.27
2017-12-23T17:21:38.044Z,3.00
2017-12-23T17:24:06.380Z,4.60
2017-12-23T17:26:34.703Z,5.57
2017-12-23T17:29:21.094Z,5.30
2017-12-23T17:31:49.411Z,4.90
2017-12-23T17:34:17.804Z,4.10
2017-12-23T17:36:46.103Z,4.20
2017-12-23T17:39:14.461Z,3.40
2017-12-23T17:41:42.780Z,5.10
2017-12-23T17:44:11.126Z,4.90
2017-12-23T17:46:39.448Z,4.87
2017-12-23T17:49:07.812Z,5.73
2017-12-23T17:51:36.167Z,4.17
2017-12-23T17:54:04.547Z,6.13
2017-12-23T17:56:33.754Z,4.90
2017-12-23T17:59:02.119Z,5.97
2017-12-23T18:01:30.445Z,5.17
2017-12-23T18:03:58.783Z,7.47
2017-12-23T18:06:27.872Z,5.40
2017-12-23T18:08:56.196Z,5.50
2017-12-23T18:11:24.527Z,4.33
2017-12-23T18:13:53.651Z,6.20
2017-12-23T18:16:22.664Z,3.73
2017-12-23T18:18:51.001Z,7.20
2017-12-23T18:21:19.393Z,6.23
2017-12-23T18:23:47.748Z,4.60
2017-12-23T18:26:16.099Z,3.77
2017-12-23T18:28:45.202Z,4.30
2017-12-23T18:31:13.548Z,4.20
2017-12-23T18:33:41.889Z,4.97
2017-12-23T18:36:10.222Z,11.57
2017-12-23T18:38:40.142Z,4.27
2017-12-23T18:41:09.277Z,4.97
2017-12-23T18:43:37.644Z,4.77
2017-12-23T18:46:06.043Z,4.43
2017-12-23T18:48:34.400Z,4.10
2017-12-23T18:51:02.751Z,6.40
2017-12-23T18:53:31.084Z,5.77
2017-12-23T18:55:59.440Z,5.10
2017-12-23T18:58:27.860Z,5.10
2017-12-23T19:00:56.205Z,5.73
2017-12-23T19:03:24.575Z,10.23
2017-12-23T19:05:52.921Z,7.73
2017-12-23T19:08:22.011Z,12.47
2017-12-23T19:10:50.345Z,7.73
2017-12-23T19:13:18.774Z,5.60
2017-12-23T19:15:49.419Z,4.13
2017-12-23T19:18:17.763Z,6.57
2017-12-23T19:20:46.169Z,5.70
2017-12-23T19:23:14.507Z,5.03
2017-12-23T19:25:42.868Z,13.13
2017-12-23T19:28:11.191Z,8.70
2017-12-23T19:30:39.520Z,7.00
2017-12-23T19:33:07.905Z,6.93
2017-12-23T19:35:36.301Z,6.07
2017-12-23T19:38:04.699Z,5.53
2017-12-23T19:40:33.082Z,7.07
2017-12-23T19:43:01.433Z,6.00
2017-12-23T19:45:29.940Z,6.30
2017-12-23T19:47:58.575Z,5.93
2017-12-23T19:50:27.013Z,5.57
2017-12-23T19:52:55.478Z,6.50
2017-12-23T19:55:24.969Z,6.30
2017-12-23T19:57:53.550Z,6.40
2017-12-23T20:00:22.257Z,6.50
2017-12-23T20:02:50.693Z,6.67
2017-12-23T20:05:19.168Z,6.67
2017-12-23T20:07:48.051Z,8.93
2017-12-23T20:10:16.824Z,5.17
2017-12-23T20:12:45.470Z,6.67
2017-12-23T20:15:14.307Z,7.97
2017-12-23T20:17:42.992Z,6.70
2017-12-23T20:20:11.919Z,8.63
2017-12-23T20:22:42.106Z,6.17
2017-12-23T20:25:11.704Z,8.10
2017-12-23T20:27:41.187Z,5.23
2017-12-23T20:30:10.831Z,5.77
2017-12-23T20:32:40.364Z,7.07
2017-12-23T20:35:10.128Z,7.20
2017-12-23T20:37:39.742Z,5.90
2017-12-23T20:40:10.222Z,7.70
2017-12-23T20:42:39.853Z,5.63
2017-12-23T20:45:11.015Z,8.20
2017-12-23T20:47:41.641Z,5.33
2017-12-23T20:50:11.376Z,6.47
2017-12-23T20:52:41.238Z,6.35
2017-12-23T20:55:11.103Z,5.77
2017-12-23T20:57:40.869Z,7.73
2017-12-23T21:00:10.662Z,6.37
2017-12-23T21:02:40.435Z,7.13
2017-12-23T21:05:10.179Z,5.73
2017-12-23T21:07:39.936Z,9.03
2017-12-23T21:10:10.485Z,6.00
2017-12-23T21:12:40.333Z,6.40
2017-12-23T21:15:10.212Z,6.23
2017-12-23T21:17:39.989Z,6.33
2017-12-23T21:20:10.457Z,6.80
2017-12-23T21:22:40.372Z,5.17
2017-12-23T21:25:10.798Z,5.73
2017-12-23T21:27:40.586Z,5.57
2017-12-23T21:30:10.545Z,4.60
2017-12-23T21:32:40.322Z,4.93
2017-12-23T21:35:10.259Z,6.47
2017-12-23T21:37:40.180Z,5.20
2017-12-23T21:40:09.977Z,5.13
2017-12-23T21:42:39.840Z,4.70
2017-12-23T21:45:09.632Z,6.63
2017-12-23T21:47:39.424Z,4.20
2017-12-23T21:50:09.371Z,6.10
2017-12-23T21:52:39.362Z,6.63
2017-12-23T21:55:09.177Z,6.13
2017-12-23T21:57:39.007Z,5.20
2017-12-23T22:00:09.159Z,6.53
2017-12-23T22:02:38.889Z,5.67
2017-12-23T22:05:08.593Z,4.27
2017-12-23T22:07:39.069Z,6.37
2017-12-23T22:10:08.650Z,7.90
2017-12-23T22:12:38.465Z,5.70
2017-12-23T22:15:08.105Z,5.80
2017-12-23T22:17:37.800Z,5.30
2017-12-23T22:20:07.409Z,6.47
2017-12-23T22:22:36.884Z,8.80
2017-12-23T22:25:05.620Z,5.93
2017-12-23T22:27:34.598Z,7.10
2017-12-23T22:30:03.098Z,4.80
2017-12-23T22:32:31.618Z,6.80
2017-12-23T22:35:00.140Z,4.70
2017-12-23T22:37:28.593Z,4.47
2017-12-23T22:39:56.922Z,4.80
2017-12-23T22:42:38.196Z,4.67
2017-12-23T22:45:06.558Z,4.97
2017-12-23T22:47:34.892Z,5.83
2017-12-23T22:50:03.288Z,4.87
2017-12-23T22:52:31.636Z,5.60
2017-12-23T22:54:59.971Z,4.40
2017-12-23T22:57:28.303Z,5.73
2017-12-23T22:59:56.642Z,5.50
2017-12-23T23:02:25.761Z,5.47
2017-12-23T23:04:54.122Z,5.60
2017-12-23T23:07:23.227Z,4.07
2017-12-23T23:09:51.554Z,5.30
2017-12-23T23:12:19.893Z,5.00
2017-12-23T23:14:48.215Z,4.00
2017-12-23T23:17:16.557Z,5.13
2017-12-23T23:19:44.884Z,4.17
2017-12-23T23:22:13.244Z,4.17
2017-12-23T23:24:41.573Z,5.73
2017-12-23T23:27:09.908Z,5.10
2017-12-23T23:29:38.237Z,4.53
2017-12-23T23:32:06.565Z,3.23
2017-12-23T23:34:34.883Z,4.80
2017-12-23T23:37:03.202Z,4.17
2017-12-23T23:39:31.518Z,3.70
2017-12-23T23:41:59.846Z,4.93
2017-12-23T23:44:28.176Z,3.60
2017-12-23T23:46:56.517Z,3.60
2017-12-23T23:49:24.840Z,3.07
2017-12-23T23:51:53.941Z,3.90
2017-12-23T23:54:22.259Z,3.77
2017-12-23T23:56:50.609Z,2.73
2017-12-23T23:59:18.940Z,3.47
